Time;durP1;ratioP1;P1;durP2;ratioP2;P2;SDS_P1;SDS_P2;PMS_P1;PMS_P2;Temp;Humidity;BMP_temperature;BMP_pressure;BME280_temperature;BME280_humidity;BME280_pressure;Samples;Min_cycle;Max_cycle;Signal;HPM_P1;HPM_P2
2024/02/19 00:02:07;;;;;;;7.83;7.03;;;8.20;99.90;;;;;;5014562;28;20283;-60
2024/02/19 00:04:34;;;;;;;6.97;6.37;;;8.30;99.90;;;;;;5019108;28;20203;-60
2024/02/19 00:07:01;;;;;;;7.00;5.90;;;8.30;99.90;;;;;;5034633;28;20627;-60
2024/02/19 00:09:28;;;;;;;8.87;6.90;;;8.30;99.90;;;;;;5033219;28;20262;-60
2024/02/19 00:11:55;;;;;;;9.03;6.70;;;8.30;99.90;;;;;;5034365;28;20225;-59
2024/02/19 00:14:22;;;;;;;7.00;5.87;;;8.20;99.90;;;;;;5028539;28;20201;-60
2024/02/19 00:16:50;;;;;;;6.67;6.03;;;8.20;99.90;;;;;;5022457;28;20220;-60
2024/02/19 00:19:17;;;;;;;5.30;4.90;;;8.20;99.90;;;;;;5034140;28;20208;-60
2024/02/19 00:21:44;;;;;;;8.37;6.37;;;8.20;99.90;;;;;;5020145;28;20219;-60
2024/02/19 00:24:11;;;;;;;6.27;5.53;;;8.20;99.90;;;;;;5013584;28;20272;-60
2024/02/19 00:26:38;;;;;;;8.50;7.40;;;8.10;99.90;;;;;;5014145;28;20618;-60
2024/02/19 00:29:06;;;;;;;7.23;6.17;;;8.10;99.90;;;;;;5014222;28;20256;-60
2024/02/19 00:31:33;;;;;;;6.63;5.67;;;8.10;99.90;;;;;;5013523;28;20202;-60
2024/02/19 00:34:01;;;;;;;6.50;5.90;;;8.10;99.90;;;;;;5026462;28;20258;-60
2024/02/19 00:36:28;;;;;;;5.87;5.30;;;8.10;99.90;;;;;;5033983;28;20224;-60
2024/02/19 00:38:55;;;;;;;7.27;6.30;;;8.20;99.90;;;;;;5034027;28;20285;-60
2024/02/19 00:41:22;;;;;;;6.27;5.67;;;8.20;99.90;;;;;;5028595;28;20199;-60
2024/02/19 00:43:49;;;;;;;7.03;6.47;;;8.20;99.90;;;;;;5032235;28;20216;-59
2024/02/19 00:46:16;;;;;;;6.17;5.67;;;8.10;99.90;;;;;;5033524;28;20212;-60
2024/02/19 00:48:43;;;;;;;12.40;6.97;;;8.20;99.90;;;;;;5033869;28;20208;-60
2024/02/19 00:51:11;;;;;;;7.40;6.33;;;8.20;99.90;;;;;;5027100;28;20737;-60
2024/02/19 00:53:39;;;;;;;6.93;5.90;;;8.20;99.90;;;;;;5012827;28;20272;-60
2024/02/19 00:56:07;;;;;;;5.47;5.07;;;8.20;99.90;;;;;;5012449;28;20260;-60
2024/02/19 00:58:33;;;;;;;6.20;5.60;;;8.10;99.90;;;;;;5013654;28;20207;-59
2024/02/19 01:01:00;;;;;;;4.10;3.70;;;8.10;99.90;;;;;;5013151;28;20744;-60
2024/02/19 01:03:27;;;;;;;2.80;2.70;;;8.20;99.90;;;;;;5012577;28;20229;-60
2024/02/19 01:05:54;;;;;;;4.47;2.87;;;8.20;99.90;;;;;;5013535;28;20205;-60
2024/02/19 01:08:23;;;;;;;2.30;1.73;;;8.30;99.90;;;;;;5013459;28;20213;-60
2024/02/19 01:10:50;;;;;;;1.30;0.90;;;8.30;99.90;;;;;;5013152;28;20209;-60
2024/02/19 01:13:17;;;;;;;0.90;0.90;;;8.50;99.90;;;;;;5010375;28;20321;-60
2024/02/19 01:15:44;;;;;;;3.10;2.90;;;8.50;99.90;;;;;;5013408;28;20203;-60
2024/02/19 01:18:11;;;;;;;5.47;4.93;;;8.60;99.90;;;;;;5011224;28;20209;-60
2024/02/19 01:20:38;;;;;;;5.30;4.93;;;8.70;99.90;;;;;;5012735;28;20213;-60
2024/02/19 01:23:05;;;;;;;6.60;5.93;;;8.60;99.90;;;;;;5017545;28;20217;-59
2024/02/19 01:25:34;;;;;;;6.70;6.00;;;;;;;;;;5032282;28;20258;-59
2024/02/19 01:28:01;;;;;;;5.40;4.90;;;;;;;;;;5033315;28;20234;-59
2024/02/19 01:30:29;;;;;;;5.40;4.93;;;;;;;;;;5036287;28;20209;-58
2024/02/19 01:32:56;;;;;;;5.33;4.83;;;;;;;;;;5013471;28;20279;-60
2024/02/19 01:35:23;;;;;;;5.90;5.27;;;;;;;;;;5012434;28;20685;-61
2024/02/19 01:37:52;;;;;;;5.33;4.93;;;;;;;;;;5013065;28;20287;-58
2024/02/19 01:40:19;;;;;;;5.27;4.57;;;;;;;;;;5012966;28;20392;-59
2024/02/19 01:42:48;;;;;;;5.00;4.50;;;;;;;;;;5012974;28;20708;-58
2024/02/19 01:45:24;;;;;;;3.83;3.37;;;;;;;;;;5012281;28;20262;-59
2024/02/19 01:47:52;;;;;;;3.43;3.13;;;;;;;;;;5013200;28;20244;-58
2024/02/19 01:50:19;;;;;;;5.10;4.60;;;;;;;;;;5016454;28;20205;-58
2024/02/19 01:52:46;;;;;;;4.00;3.70;;;;;;;;;;5012586;28;20218;-59
2024/02/19 01:55:14;;;;;;;4.10;3.80;;;;;;;;;;5011674;28;20625;-58
2024/02/19 01:57:42;;;;;;;2.87;2.67;;;;;;;;;;5012434;28;20219;-58
2024/02/19 02:00:11;;;;;;;2.37;2.07;;;;;;;;;;5012579;28;20686;-59
2024/02/19 02:02:39;;;;;;;2.27;1.23;;;;;;;;;;5011922;28;20225;-59
2024/02/19 02:05:07;;;;;;;1.77;1.30;;;8.40;99.90;;;;;;5011633;28;20263;-59
2024/02/19 02:07:34;;;;;;;1.33;0.90;;;8.60;99.90;;;;;;5012404;28;20743;-59
2024/02/19 02:10:04;;;;;;;0.60;0.60;;;;;;;;;;5012138;28;20254;-58
2024/02/19 02:12:33;;;;;;;0.80;0.50;;;8.50;99.90;;;;;;5012007;28;20256;-58
2024/02/19 02:15:00;;;;;;;0.20;0.20;;;8.60;99.90;;;;;;5011622;28;20210;-59
2024/02/19 02:17:32;;;;;;;1.03;0.20;;;8.60;99.90;;;;;;5012674;28;20271;-58
2024/02/19 02:19:59;;;;;;;0.10;0.10;;;;;;;;;;5012192;28;20304;-59
2024/02/19 02:22:26;;;;;;;0.10;0.10;;;8.50;99.90;;;;;;5012112;28;20398;-59
2024/02/19 02:24:54;;;;;;;0.10;0.10;;;;;;;;;;5011610;28;20208;-59
2024/02/19 02:27:22;;;;;;;0.00;0.00;;;8.40;99.90;;;;;;5013013;28;20784;-59
2024/02/19 02:29:49;;;;;;;0.20;0.10;;;8.40;99.90;;;;;;5012042;28;20210;-59
2024/02/19 02:32:16;;;;;;;0.10;0.10;;;;;;;;;;5011547;28;20279;-59
2024/02/19 02:34:43;;;;;;;0.20;0.20;;;8.40;99.90;;;;;;5010748;28;20211;-59
2024/02/19 02:37:10;;;;;;;0.30;0.10;;;;;;;;;;5011865;28;20706;-59
2024/02/19 02:39:39;;;;;;;0.27;0.27;;;;;;;;;;5012228;28;20347;-58
2024/02/19 02:42:07;;;;;;;0.40;0.40;;;;;;;;;;5011631;28;20256;-58
2024/02/19 02:44:35;;;;;;;0.30;0.30;;;;;;;;;;5011195;28;20240;-60
2024/02/19 02:47:03;;;;;;;0.50;0.40;;;;;;;;;;5012064;28;20669;-58
2024/02/19 02:49:30;;;;;;;0.30;0.30;;;;;;;;;;5011803;28;20247;-58
2024/02/19 02:51:57;;;;;;;0.47;0.47;;;;;;;;;;5011679;28;20233;-59
2024/02/19 02:54:24;;;;;;;0.30;0.30;;;;;;;;;;5011174;28;20227;-59
2024/02/19 02:56:52;;;;;;;0.50;0.50;;;;;;;;;;5017287;28;20284;-58
2024/02/19 02:59:19;;;;;;;0.57;0.50;;;;;;;;;;5031483;28;20204;-58
2024/02/19 03:01:47;;;;;;;0.43;0.43;;;;;;;;;;5031457;28;20274;-59
2024/02/19 03:04:16;;;;;;;0.40;0.40;;;;;;;;;;5030718;28;20255;-60
2024/02/19 03:06:43;;;;;;;0.33;0.30;;;;;;;;;;5031691;28;20242;-59
2024/02/19 03:09:10;;;;;;;0.40;0.40;;;;;;;;;;5031425;28;20206;-58
2024/02/19 03:11:37;;;;;;;1.63;0.60;;;;;;;;;;5031686;28;20208;-59
2024/02/19 03:14:05;;;;;;;0.40;0.40;;;;;;;;;;5023816;28;20259;-58
2024/02/19 03:16:31;;;;;;;0.30;0.30;;;8.30;99.90;;;;;;5031330;28;20636;-58
2024/02/19 03:19:00;;;;;;;0.40;0.40;;;;;;;;;;5029223;28;20623;-58
2024/02/19 03:21:28;;;;;;;0.60;0.60;;;8.30;99.90;;;;;;5031432;28;20308;-59
2024/02/19 03:23:55;;;;;;;0.43;0.43;;;;;;;;;;5028639;28;20311;-58
2024/02/19 03:26:25;;;;;;;0.43;0.43;;;;;;;;;;5031320;28;20205;-58
2024/02/19 03:28:52;;;;;;;1.33;0.50;;;8.30;99.90;;;;;;5027573;28;20201;-59
2024/02/19 03:31:20;;;;;;;0.40;0.40;;;;;;;;;;5011561;28;20212;-59
2024/02/19 03:33:47;;;;;;;0.40;0.40;;;;;;;;;;5010545;28;20229;-58
2024/02/19 03:36:16;;;;;;;0.50;0.50;;;8.70;99.90;;;;;;5011635;28;20205;-59
2024/02/19 03:38:43;;;;;;;0.70;0.60;;;8.50;99.90;;;;;;5011536;28;20261;-59
2024/02/19 03:41:10;;;;;;;1.27;0.40;;;8.40;99.90;;;;;;5011657;28;20205;-59
2024/02/19 03:43:37;;;;;;;0.40;0.40;;;8.40;99.90;;;;;;5014020;28;20236;-58
2024/02/19 03:46:05;;;;;;;0.50;0.50;;;;;;;;;;5012360;28;20810;-59
2024/02/19 03:48:32;;;;;;;0.40;0.40;;;8.40;99.90;;;;;;4995551;28;20204;-59
2024/02/19 03:50:59;;;;;;;1.13;0.40;;;8.40;99.90;;;;;;4995586;28;20617;-59
2024/02/19 03:53:29;;;;;;;1.13;0.60;;;8.40;99.90;;;;;;4995025;28;20606;-59
2024/02/19 03:55:56;;;;;;;0.50;0.50;;;;;;;;;;4995468;28;20624;-59
2024/02/19 03:58:23;;;;;;;1.00;0.60;;;8.30;99.90;;;;;;4995653;28;20721;-59
2024/02/19 04:00:50;;;;;;;0.60;0.60;;;8.30;99.90;;;;;;4995646;28;20207;-60
2024/02/19 04:03:17;;;;;;;0.77;0.63;;;8.40;99.90;;;;;;5015180;28;20275;-59
2024/02/19 04:05:44;;;;;;;7.77;0.80;;;8.40;99.90;;;;;;5014815;28;20209;-59
2024/02/19 04:08:11;;;;;;;0.97;0.37;;;8.60;99.90;;;;;;5014843;28;20236;-59
2024/02/19 04:10:40;;;;;;;0.97;0.97;;;8.50;99.90;;;;;;5014707;28;20213;-59
2024/02/19 04:13:07;;;;;;;2.70;0.83;;;8.40;99.90;;;;;;5014294;28;20253;-59
2024/02/19 04:15:34;;;;;;;0.80;0.80;;;8.30;99.90;;;;;;5013691;28;20577;-59
2024/02/19 04:18:01;;;;;;;1.33;0.90;;;8.50;99.90;;;;;;5014615;28;20273;-60
2024/02/19 04:20:28;;;;;;;0.60;0.60;;;8.40;99.90;;;;;;5014392;28;20276;-60
2024/02/19 04:22:54;;;;;;;2.70;1.20;;;8.30;99.90;;;;;;5014295;28;20276;-59
2024/02/19 04:25:22;;;;;;;2.07;1.00;;;8.30;99.90;;;;;;5013468;28;20201;-59
2024/02/19 04:27:50;;;;;;;1.33;0.90;;;8.30;99.90;;;;;;5014245;28;20203;-60
2024/02/19 04:30:17;;;;;;;1.20;0.80;;;8.20;99.90;;;;;;5014370;28;20275;-60
2024/02/19 04:32:44;;;;;;;0.90;0.90;;;8.20;99.90;;;;;;5014071;28;20226;-59
2024/02/19 04:35:11;;;;;;;4.40;0.87;;;8.20;99.90;;;;;;5013949;28;20198;-60
2024/02/19 04:37:38;;;;;;;1.07;1.07;;;8.20;99.90;;;;;;5014160;28;20315;-60
2024/02/19 04:40:07;;;;;;;1.43;1.33;;;8.20;99.90;;;;;;5013833;28;20255;-60
2024/02/19 04:42:34;;;;;;;2.03;1.73;;;8.20;99.90;;;;;;5013606;28;20240;-60
2024/02/19 04:45:02;;;;;;;1.87;1.77;;;8.30;99.90;;;;;;5013179;28;20260;-60
2024/02/19 04:47:33;;;;;;;1.53;1.43;;;8.50;99.90;;;;;;5013736;28;20723;-59
2024/02/19 04:50:00;;;;;;;3.13;1.67;;;8.30;99.90;;;;;;5014039;28;20568;-59
2024/02/19 04:52:28;;;;;;;2.50;1.67;;;8.30;99.90;;;;;;5031854;28;20275;-60
2024/02/19 04:54:56;;;;;;;1.50;1.40;;;8.30;99.90;;;;;;5032504;28;20303;-60
2024/02/19 04:57:23;;;;;;;2.20;2.10;;;8.30;99.90;;;;;;5033032;28;20311;-60
2024/02/19 04:59:50;;;;;;;2.83;2.73;;;8.30;99.90;;;;;;5033482;28;20206;-60
2024/02/19 05:02:18;;;;;;;2.90;2.70;;;8.20;99.90;;;;;;5033158;28;20804;-60
2024/02/19 05:04:45;;;;;;;2.63;2.50;;;8.20;99.90;;;;;;5032543;28;20237;-59
2024/02/19 05:07:12;;;;;;;2.50;2.10;;;8.20;99.90;;;;;;5022908;28;20254;-60
2024/02/19 05:09:40;;;;;;;1.20;1.20;;;8.20;99.90;;;;;;5027212;28;20196;-59
2024/02/19 05:12:07;;;;;;;1.63;1.53;;;8.20;99.90;;;;;;5033071;28;20232;-59
2024/02/19 05:14:34;;;;;;;0.80;0.80;;;8.20;99.90;;;;;;5032437;28;20262;-60
2024/02/19 05:17:01;;;;;;;1.93;1.40;;;8.30;99.90;;;;;;5033033;28;20208;-59
2024/02/19 05:19:30;;;;;;;1.70;1.60;;;8.20;99.90;;;;;;5033087;28;20210;-59
2024/02/19 05:21:57;;;;;;;1.80;1.70;;;8.20;99.90;;;;;;5033045;28;20220;-60
2024/02/19 05:24:23;;;;;;;3.07;1.70;;;8.20;99.90;;;;;;5015379;28;20201;-60
2024/02/19 05:26:50;;;;;;;1.60;1.57;;;8.20;99.90;;;;;;5013365;28;20206;-60
2024/02/19 05:29:17;;;;;;;2.60;1.30;;;8.20;99.90;;;;;;5011069;28;20203;-58
2024/02/19 05:31:44;;;;;;;1.10;1.10;;;8.10;99.90;;;;;;5013077;28;20229;-60
2024/02/19 05:34:11;;;;;;;0.97;0.93;;;8.10;99.90;;;;;;5016016;28;20214;-59
2024/02/19 05:36:40;;;;;;;0.70;0.70;;;8.10;99.90;;;;;;5013236;28;20236;-60
2024/02/19 05:39:10;;;;;;;1.17;1.17;;;8.10;99.90;;;;;;5012972;28;20644;-59
2024/02/19 05:41:37;;;;;;;1.77;1.47;;;8.10;99.90;;;;;;5009431;28;20718;-60
2024/02/19 05:44:05;;;;;;;3.63;1.70;;;8.10;99.90;;;;;;5032357;28;20241;-62
2024/02/19 05:46:32;;;;;;;2.23;2.03;;;8.10;99.90;;;;;;5033112;28;20632;-63
2024/02/19 05:48:59;;;;;;;2.60;1.60;;;8.10;99.90;;;;;;5033805;28;20630;-61
2024/02/19 05:51:26;;;;;;;3.20;2.90;;;8.20;99.90;;;;;;5033922;28;20759;-62
2024/02/19 05:53:55;;;;;;;4.13;1.83;;;8.20;99.90;;;;;;5029554;28;20203;-61
2024/02/19 05:56:22;;;;;;;2.00;1.90;;;8.20;99.90;;;;;;5013045;28;20205;-62
2024/02/19 05:58:49;;;;;;;2.17;2.07;;;8.30;99.90;;;;;;5012616;28;20270;-61
2024/02/19 06:01:16;;;;;;;2.10;1.60;;;8.20;99.90;;;;;;5012406;28;20263;-62
2024/02/19 06:03:43;;;;;;;2.33;1.20;;;8.20;99.90;;;;;;5011586;28;20229;-61
2024/02/19 06:06:10;;;;;;;2.40;1.50;;;8.20;99.90;;;;;;5012632;28;20210;-61
2024/02/19 06:08:37;;;;;;;2.07;1.97;;;8.20;99.90;;;;;;5011664;28;20289;-61
2024/02/19 06:11:06;;;;;;;1.43;1.13;;;8.20;99.90;;;;;;5012762;28;20698;-61
2024/02/19 06:13:33;;;;;;;4.30;1.30;;;8.20;99.90;;;;;;5011513;28;20225;-61
2024/02/19 06:16:01;;;;;;;2.00;1.80;;;8.20;99.90;;;;;;5012147;28;20206;-62
2024/02/19 06:18:28;;;;;;;2.17;1.50;;;8.20;99.90;;;;;;5012324;28;20280;-61
2024/02/19 06:20:55;;;;;;;1.17;1.13;;;8.20;99.90;;;;;;5012086;28;20208;-61
2024/02/19 06:23:22;;;;;;;3.10;1.03;;;8.20;99.90;;;;;;5011386;28;20224;-61
2024/02/19 06:25:49;;;;;;;3.13;1.27;;;8.20;99.90;;;;;;5011758;28;20216;-61
2024/02/19 06:28:18;;;;;;;0.97;0.97;;;8.20;99.90;;;;;;5029930;28;20190;-62
2024/02/19 06:30:45;;;;;;;2.27;1.43;;;8.30;99.90;;;;;;5031800;28;20213;-61
2024/02/19 06:33:12;;;;;;;2.23;2.10;;;8.30;99.90;;;;;;5031488;28;20220;-64
2024/02/19 06:35:40;;;;;;;3.57;2.47;;;8.20;99.90;;;;;;5031684;28;20257;-61
2024/02/19 06:38:07;;;;;;;4.73;4.33;;;8.30;99.90;;;;;;5031641;28;20221;-62
2024/02/19 06:40:34;;;;;;;6.63;5.97;;;8.30;99.90;;;;;;5031717;28;20227;-61
2024/02/19 06:43:01;;;;;;;8.23;7.47;;;8.40;99.90;;;;;;5014572;28;20237;-62
2024/02/19 06:45:29;;;;;;;10.63;6.93;;;8.40;99.90;;;;;;5023487;28;20254;-61
2024/02/19 06:47:56;;;;;;;9.03;6.93;;;8.40;99.90;;;;;;5031852;28;20205;-61
2024/02/19 06:50:23;;;;;;;10.97;8.77;;;8.40;99.90;;;;;;5031576;28;20212;-61
2024/02/19 06:52:50;;;;;;;5.90;5.30;;;8.40;99.90;;;;;;5031569;28;20282;-61
2024/02/19 06:55:18;;;;;;;4.93;4.27;;;8.30;99.90;;;;;;5030785;28;20209;-61
2024/02/19 06:57:45;;;;;;;4.40;4.10;;;8.30;99.90;;;;;;5025960;28;20202;-61
2024/02/19 07:00:13;;;;;;;5.23;3.63;;;8.30;99.90;;;;;;5011979;28;20205;-61
2024/02/19 07:02:41;;;;;;;4.40;4.10;;;8.40;99.90;;;;;;5011600;28;20659;-61
2024/02/19 07:05:09;;;;;;;4.00;3.20;;;8.30;99.90;;;;;;5011116;28;20205;-61
2024/02/19 07:07:37;;;;;;;5.77;5.33;;;8.30;99.90;;;;;;5023056;28;20196;-61
2024/02/19 07:10:05;;;;;;;5.40;3.63;;;8.40;99.90;;;;;;5031322;28;20244;-61
2024/02/19 07:12:32;;;;;;;3.73;3.37;;;8.40;99.90;;;;;;5031362;28;20640;-61
2024/02/19 07:14:59;;;;;;;4.27;3.90;;;8.30;99.90;;;;;;5017974;28;20203;-61
2024/02/19 07:17:29;;;;;;;6.80;4.27;;;8.40;99.90;;;;;;5011620;28;20616;-61
2024/02/19 07:19:58;;;;;;;4.20;2.30;;;8.40;99.90;;;;;;5013989;28;20229;-61
2024/02/19 07:22:25;;;;;;;2.17;1.97;;;8.40;99.90;;;;;;5015423;28;20229;-61
2024/02/19 07:24:52;;;;;;;2.73;2.53;;;8.30;99.90;;;;;;5014538;28;20681;-61
2024/02/19 07:27:19;;;;;;;2.20;2.00;;;8.40;99.90;;;;;;5015585;28;20205;-61
2024/02/19 07:29:46;;;;;;;1.00;1.00;;;8.50;99.90;;;;;;5031164;28;20731;-61
2024/02/19 07:32:12;;;;;;;2.03;1.60;;;8.50;99.90;;;;;;5035104;28;20278;-61
2024/02/19 07:34:39;;;;;;;1.50;1.40;;;8.60;99.90;;;;;;5032674;28;20262;-61
2024/02/19 07:37:08;;;;;;;1.90;1.80;;;8.70;99.90;;;;;;5035091;28;20204;-61
2024/02/19 07:39:35;;;;;;;2.03;1.80;;;8.70;99.90;;;;;;5035071;28;20283;-61
2024/02/19 07:42:02;;;;;;;2.72;2.35;;;8.70;99.90;;;;;;5025365;28;20462;-61
2024/02/19 07:44:29;;;;;;;2.57;2.47;;;8.90;99.90;;;;;;5022714;28;20213;-62
2024/02/19 07:46:56;;;;;;;4.90;2.90;;;9.00;99.90;;;;;;5014452;28;20202;-66
2024/02/19 07:49:23;;;;;;;3.60;3.30;;;9.00;99.90;;;;;;5014728;28;20205;-65
2024/02/19 07:51:50;;;;;;;3.60;2.43;;;9.10;99.90;;;;;;5014884;28;20220;-66
2024/02/19 07:54:18;;;;;;;3.80;2.10;;;9.20;99.90;;;;;;5013634;28;20197;-62
2024/02/19 07:56:45;;;;;;;2.47;2.37;;;9.30;99.90;;;;;;5014812;28;20256;-66
2024/02/19 07:59:13;;;;;;;2.93;2.73;;;9.40;99.90;;;;;;5016945;28;20226;-70
2024/02/19 08:01:39;;;;;;;3.73;3.27;;;9.60;99.90;;;;;;5014664;28;20869;-68
2024/02/19 08:04:06;;;;;;;3.67;1.90;;;9.80;99.90;;;;;;5015394;28;20643;-68
2024/02/19 08:06:33;;;;;;;4.17;2.73;;;10.00;99.90;;;;;;5017095;28;20209;-61
2024/02/19 08:09:03;;;;;;;2.73;2.20;;;10.10;99.90;;;;;;5033125;28;20251;-61
2024/02/19 08:11:31;;;;;;;2.23;2.07;;;10.30;99.90;;;;;;5034301;28;20204;-63
2024/02/19 08:13:58;;;;;;;3.20;1.67;;;9.80;99.90;;;;;;5033579;28;20206;-61
2024/02/19 08:16:25;;;;;;;2.58;1.52;;;10.70;99.90;;;;;;5033455;28;20468;-59
2024/02/19 08:18:53;;;;;;;2.87;1.80;;;10.70;99.90;;;;;;5033966;28;20224;-61
2024/02/19 08:21:19;;;;;;;3.00;1.60;;;10.80;99.90;;;;;;5020568;28;20602;-59
2024/02/19 08:23:46;;;;;;;2.20;1.47;;;10.90;99.90;;;;;;5013573;28;20261;-60
2024/02/19 08:26:13;;;;;;;2.43;1.40;;;11.10;99.90;;;;;;5014401;28;20249;-59
2024/02/19 08:28:41;;;;;;;1.90;1.63;;;11.40;99.90;;;;;;5014314;28;20241;-61
2024/02/19 08:31:08;;;;;;;5.23;1.30;;;11.70;99.90;;;;;;5012891;28;20237;-60
2024/02/19 08:33:35;;;;;;;1.87;1.27;;;11.80;99.90;;;;;;5012653;28;20254;-61
2024/02/19 08:36:02;;;;;;;2.27;2.07;;;12.00;99.90;;;;;;5013448;28;20234;-61
2024/02/19 08:38:30;;;;;;;2.50;2.30;;;12.20;99.90;;;;;;5013473;28;20353;-60
2024/02/19 08:40:57;;;;;;;2.20;2.10;;;12.30;99.90;;;;;;5009250;28;20226;-60
2024/02/19 08:43:24;;;;;;;1.20;1.10;;;12.40;99.90;;;;;;5012577;28;20735;-60
2024/02/19 08:45:52;;;;;;;0.83;0.70;;;12.40;99.90;;;;;;5013518;28;20237;-60
2024/02/19 08:48:19;;;;;;;0.33;0.30;;;12.30;99.90;;;;;;5014310;28;20241;-61
2024/02/19 08:50:51;;;;;;;0.40;0.37;;;12.40;99.90;;;;;;5013296;28;20233;-61
2024/02/19 08:53:19;;;;;;;0.40;0.40;;;12.30;99.90;;;;;;5012940;28;20311;-62
2024/02/19 08:55:45;;;;;;;1.67;1.43;;;12.40;99.90;;;;;;5013726;28;20633;-61
2024/02/19 08:58:12;;;;;;;1.83;1.73;;;12.40;99.90;;;;;;5013653;28;20239;-63
2024/02/19 09:00:39;;;;;;;3.37;1.70;;;12.30;99.90;;;;;;5013445;28;20245;-66
2024/02/19 09:03:07;;;;;;;2.17;1.98;;;12.40;99.90;;;;;;5009821;28;20524;-61
2024/02/19 09:05:37;;;;;;;5.50;2.07;;;12.50;99.90;;;;;;5011971;28;20207;-63
2024/02/19 09:08:05;;;;;;;1.67;1.57;;;12.60;99.90;;;;;;5012890;28;20694;-61
2024/02/19 09:10:32;;;;;;;2.07;0.90;;;12.70;99.90;;;;;;5012759;28;20206;-61
2024/02/19 09:13:00;;;;;;;2.30;2.10;;;12.50;99.90;;;;;;5014154;28;20252;-60
2024/02/19 09:15:27;;;;;;;3.70;1.37;;;12.30;99.90;;;;;;5011458;28;20248;-63
2024/02/19 09:17:54;;;;;;;1.93;1.60;;;12.00;99.90;;;;;;5012201;28;20248;-62
2024/02/19 09:20:22;;;;;;;2.50;2.30;;;12.10;99.90;;;;;;5013407;28;20886;-61
2024/02/19 09:22:49;;;;;;;3.40;3.10;;;11.90;99.90;;;;;;5012399;28;20230;-62
2024/02/19 09:25:16;;;;;;;2.53;1.30;;;11.80;99.90;;;;;;5011838;28;20236;-62
2024/02/19 09:27:44;;;;;;;2.57;2.30;;;11.70;99.90;;;;;;5012602;28;20685;-62
2024/02/19 09:30:12;;;;;;;5.00;1.43;;;11.70;99.90;;;;;;5012743;28;20646;-62
2024/02/19 09:32:39;;;;;;;1.43;1.33;;;11.60;99.90;;;;;;5012095;28;20292;-61
2024/02/19 09:35:06;;;;;;;1.07;1.07;;;11.40;99.90;;;;;;5012198;28;20593;-61
2024/02/19 09:37:36;;;;;;;3.63;1.80;;;11.10;99.90;;;;;;4999098;28;20202;-61
2024/02/19 09:40:05;;;;;;;1.17;0.93;;;10.90;99.90;;;;;;4991890;28;20223;-62
2024/02/19 09:42:32;;;;;;;1.00;1.00;;;10.90;99.90;;;;;;4996320;28;20733;-62
2024/02/19 09:44:59;;;;;;;1.60;1.40;;;11.00;99.90;;;;;;4992678;28;20246;-62
2024/02/19 09:47:32;;;;;;;2.10;1.90;;;11.10;99.90;;;;;;4993305;28;20257;-61
2024/02/19 09:49:59;;;;;;;0.80;0.80;;;11.10;99.90;;;;;;4993483;28;20209;-61
2024/02/19 09:52:27;;;;;;;3.70;0.93;;;10.90;99.90;;;;;;5010023;28;20242;-62
2024/02/19 09:54:55;;;;;;;1.30;1.10;;;10.90;99.90;;;;;;5011865;28;20237;-62
2024/02/19 09:57:23;;;;;;;1.50;1.40;;;11.10;99.90;;;;;;5013064;28;20714;-61
2024/02/19 09:59:50;;;;;;;1.17;1.07;;;11.00;99.90;;;;;;5013168;28;20241;-62
2024/02/19 10:02:19;;;;;;;2.57;1.47;;;10.80;99.90;;;;;;5015579;28;20254;-61
2024/02/19 10:04:47;;;;;;;1.60;1.60;;;10.80;99.90;;;;;;5011554;28;20230;-62
2024/02/19 10:07:18;;;;;;;2.30;1.60;;;10.80;99.90;;;;;;5012381;28;20700;-61
2024/02/19 10:09:44;;;;;;;1.23;1.13;;;10.80;99.90;;;;;;5012716;28;20198;-61
2024/02/19 10:12:13;;;;;;;1.97;1.87;;;10.70;99.90;;;;;;5012572;28;20262;-61
2024/02/19 10:14:40;;;;;;;1.90;1.80;;;10.80;99.90;;;;;;5011742;28;20240;-63
2024/02/19 10:17:06;;;;;;;2.33;1.83;;;10.90;99.90;;;;;;5011911;28;20241;-62
2024/02/19 10:19:33;;;;;;;3.87;1.90;;;10.90;99.90;;;;;;5012146;28;20228;-62
2024/02/19 10:22:00;;;;;;;1.40;1.40;;;11.10;99.90;;;;;;5012119;28;20600;-62
2024/02/19 10:24:27;;;;;;;0.93;0.93;;;11.30;99.90;;;;;;5011571;28;20240;-61
2024/02/19 10:26:54;;;;;;;1.20;1.20;;;11.40;99.90;;;;;;5012303;28;20295;-62
2024/02/19 10:29:22;;;;;;;1.20;1.10;;;11.50;99.90;;;;;;5012138;28;20211;-61
2024/02/19 10:31:49;;;;;;;1.77;0.80;;;11.50;99.90;;;;;;5010083;28;20471;-64
2024/02/19 10:34:16;;;;;;;0.90;0.87;;;11.50;99.90;;;;;;5011097;28;20198;-69
2024/02/19 10:36:46;;;;;;;0.60;0.60;;;11.70;99.90;;;;;;4995655;28;20249;-71
2024/02/19 10:39:13;;;;;;;3.97;2.77;;;11.90;99.90;;;;;;4992320;28;20227;-61
2024/02/19 10:41:40;;;;;;;1.13;1.13;;;12.10;99.90;;;;;;4992049;28;20626;-61
2024/02/19 10:44:07;;;;;;;1.43;1.20;;;12.40;99.90;;;;;;4991425;28;20242;-61
2024/02/19 10:46:36;;;;;;;1.00;1.00;;;12.60;99.90;;;;;;4992033;28;20237;-61
2024/02/19 10:49:03;;;;;;;1.53;0.90;;;12.70;99.90;;;;;;4994027;28;20945;-63
2024/02/19 10:51:30;;;;;;;1.57;1.47;;;12.90;99.90;;;;;;4992173;28;20828;-62
2024/02/19 10:54:02;;;;;;;0.80;0.80;;;13.00;99.90;;;;;;4992314;28;20243;-66
2024/02/19 10:56:36;;;;;;;0.73;0.73;;;13.00;99.90;;;;;;4996787;28;20285;-62
2024/02/19 10:59:03;;;;;;;0.83;0.83;;;13.10;99.90;;;;;;4996056;28;20265;-66
2024/02/19 11:01:43;;;;;;;1.00;0.83;;;13.00;99.90;;;;;;4996002;28;20261;-68
2024/02/19 11:04:19;;;;;;;0.80;0.77;;;12.80;99.90;;;;;;5017020;28;20205;-66
2024/02/19 11:06:46;;;;;;;1.03;1.03;;;12.80;99.90;;;;;;5035615;28;20202;-66
2024/02/19 11:09:14;;;;;;;1.00;1.00;;;12.50;99.90;;;;;;5035508;28;20221;-66
2024/02/19 11:11:47;;;;;;;1.03;1.03;;;12.40;99.90;;;;;;5035143;28;20237;-62
2024/02/19 11:14:15;;;;;;;0.93;0.60;;;12.30;99.90;;;;;;5034572;28;20243;-61
2024/02/19 11:16:44;;;;;;;0.60;0.60;;;12.10;99.90;;;;;;5035414;28;20205;-61
2024/02/19 11:19:11;;;;;;;0.30;0.30;;;11.80;99.90;;;;;;5033950;28;20696;-62
2024/02/19 11:21:37;;;;;;;0.77;0.30;;;11.50;99.90;;;;;;5034882;28;20294;-61
2024/02/19 11:24:05;;;;;;;0.37;0.30;;;11.50;99.90;;;;;;5034335;28;20241;-60
2024/02/19 11:26:32;;;;;;;0.30;0.30;;;11.50;99.90;;;;;;5035026;28;20287;-61
2024/02/19 11:28:59;;;;;;;0.73;0.40;;;11.50;99.90;;;;;;5035214;28;20201;-61
2024/02/19 11:31:28;;;;;;;1.70;0.80;;;11.60;99.90;;;;;;5034891;28;20205;-61
2024/02/19 11:33:58;;;;;;;0.40;0.40;;;11.80;99.90;;;;;;5034302;28;20213;-61
2024/02/19 11:36:26;;;;;;;0.60;0.60;;;12.00;99.90;;;;;;5033767;28;20739;-61
2024/02/19 11:38:55;;;;;;;1.13;0.80;;;12.10;99.90;;;;;;5032701;28;20213;-61
2024/02/19 11:41:23;;;;;;;0.80;0.80;;;12.10;99.90;;;;;;5034959;28;20224;-61
2024/02/19 11:43:54;;;;;;;0.97;0.90;;;12.10;99.90;;;;;;5032274;28;20211;-61
2024/02/19 11:46:22;;;;;;;1.57;0.87;;;12.00;99.90;;;;;;5034925;28;20224;-61
2024/02/19 11:48:50;;;;;;;3.13;0.80;;;12.00;99.90;;;;;;5034737;28;20298;-61
2024/02/19 11:51:18;;;;;;;0.90;0.90;;;12.00;99.90;;;;;;5034004;28;20197;-61
2024/02/19 11:53:45;;;;;;;1.00;0.90;;;12.00;99.90;;;;;;5033895;28;20233;-63
2024/02/19 11:56:12;;;;;;;0.93;0.90;;;12.00;99.90;;;;;;5035100;28;20585;-62
2024/02/19 11:58:39;;;;;;;1.80;0.70;;;12.10;99.90;;;;;;5037577;28;20199;-61
2024/02/19 12:01:06;;;;;;;1.30;0.90;;;11.90;99.90;;;;;;5034459;28;20264;-62
2024/02/19 12:03:34;;;;;;;0.70;0.70;;;11.90;99.90;;;;;;5033528;28;20949;-61
2024/02/19 12:06:02;;;;;;;1.50;0.37;;;12.00;99.90;;;;;;5033035;28;20240;-62
2024/02/19 12:08:31;;;;;;;1.93;0.67;;;12.00;99.90;;;;;;5024643;28;20733;-61
2024/02/19 12:10:58;;;;;;;1.60;0.40;;;12.10;99.90;;;;;;5014379;28;20208;-61
2024/02/19 12:13:26;;;;;;;0.40;0.40;;;12.20;99.90;;;;;;5014107;28;20749;-61
2024/02/19 12:15:53;;;;;;;0.50;0.30;;;12.30;99.90;;;;;;5014919;28;20256;-61
2024/02/19 12:18:20;;;;;;;1.90;0.30;;;12.40;99.90;;;;;;5017647;28;20237;-61
2024/02/19 12:20:47;;;;;;;2.57;0.70;;;12.40;99.90;;;;;;5014163;28;20234;-61
2024/02/19 12:23:15;;;;;;;0.60;0.57;;;12.50;99.90;;;;;;5013683;28;20225;-63
2024/02/19 12:25:44;;;;;;;0.60;0.60;;;12.50;99.90;;;;;;5014343;28;20286;-61
2024/02/19 12:28:10;;;;;;;1.30;0.50;;;12.50;99.90;;;;;;4994561;28;20245;-61
2024/02/19 12:30:37;;;;;;;0.40;0.40;;;12.60;99.90;;;;;;4994564;28;20204;-61
2024/02/19 12:33:05;;;;;;;0.77;0.60;;;12.60;99.90;;;;;;4993998;28;20273;-61
2024/02/19 12:35:32;;;;;;;1.50;0.50;;;12.50;99.90;;;;;;4993576;28;20217;-62
2024/02/19 12:38:00;;;;;;;2.20;0.50;;;12.60;99.90;;;;;;4994410;28;20206;-60
2024/02/19 12:40:27;;;;;;;0.30;0.30;;;12.70;99.90;;;;;;4998474;28;20271;-61
2024/02/19 12:42:55;;;;;;;1.33;0.47;;;12.70;99.90;;;;;;5013840;28;20252;-62
2024/02/19 12:45:23;;;;;;;0.63;0.40;;;12.60;99.90;;;;;;5012962;28;20257;-61
2024/02/19 12:47:50;;;;;;;1.23;0.37;;;12.80;99.90;;;;;;5013748;28;20202;-61
2024/02/19 12:50:17;;;;;;;1.40;0.33;;;12.80;99.90;;;;;;5014014;28;20294;-61
2024/02/19 12:52:44;;;;;;;0.63;0.40;;;12.70;99.90;;;;;;5013849;28;20289;-62
2024/02/19 12:55:11;;;;;;;1.70;0.30;;;12.60;99.90;;;;;;5016329;28;20198;-60
2024/02/19 12:57:38;;;;;;;5.50;0.70;;;12.60;99.90;;;;;;5013663;28;20306;-62
2024/02/19 13:00:09;;;;;;;1.90;0.47;;;12.70;99.90;;;;;;5013545;28;20242;-61
2024/02/19 13:02:36;;;;;;;0.63;0.30;;;12.70;99.90;;;;;;5013407;28;20234;-61
2024/02/19 13:05:03;;;;;;;2.47;0.40;;;12.60;99.90;;;;;;5012681;28;20293;-62
2024/02/19 13:07:32;;;;;;;0.77;0.40;;;12.40;99.90;;;;;;5013745;28;20245;-61